GCGM/GMZ METAR and TAF weather

Enter ICAO airport designator
Station Type Date Time Source
GCGM METAR 2018/01/24 07:00 UTC NOAA

GCGM 240700Z 00000KT CAVOK 15/06 Q1024 RMK R09/00000KT ARP/00000KT


Station Type Date Time Source
GCGM Decoded METAR 2018/01/24 07:00 UTC NOAA

Station name not available
Jan 24, 2018 - 02:00 AM EST / 2018.01.24 0700 UTC
Wind: Calm:0
Visibility: greater than 7 mile(s):0
Temperature: 59 F (15 C)
Dew Point: 42 F (6 C)
Relative Humidity: 54%
Pressure (altimeter): 30.24 in. Hg (1024 hPa)
ob: GCGM 240700Z 00000KT CAVOK 15/06 Q1024 RMK R09/00000KT ARP/00000KT
cycle: 7

Station Type Date Time Source
GCGM TAF 2018/01/24 03:00 UTC NOAA

TAF GCGM 240200Z 2403/2503 VRB04KT CAVOK TX22/2414Z TN15/2406Z


Example: see airport list